Time;durP1;ratioP1;P1;durP2;ratioP2;P2;SDS_P1;SDS_P2;PMS_P1;PMS_P2;Temp;Humidity;BMP_temperature;BMP_pressure;BME280_temperature;BME280_humidity;BME280_pressure;Samples;Min_cycle;Max_cycle;Signal;HPM_P1;HPM_P2
2023/12/30 00:01:40;;;;;;;3.80;2.10;;;9.00;1.00;;;;;;7378326;19;20017;-71
2023/12/30 00:04:10;;;;;;;4.13;2.22;;;9.00;1.00;;;;;;7380433;19;20014;-71
2023/12/30 00:06:40;;;;;;;4.05;2.35;;;9.00;1.00;;;;;;7377439;19;20010;-70
2023/12/30 00:09:11;;;;;;;4.10;2.00;;;9.00;1.00;;;;;;7380227;19;20031;-71
2023/12/30 00:11:44;;;;;;;3.05;2.00;;;9.10;1.00;;;;;;7381613;19;20026;-70
2023/12/30 00:14:15;;;;;;;4.68;2.13;;;9.10;1.00;;;;;;7380291;19;20006;-71
2023/12/30 00:16:45;;;;;;;3.30;2.15;;;9.10;1.00;;;;;;7380383;19;20278;-69
2023/12/30 00:19:15;;;;;;;5.40;2.17;;;9.10;1.00;;;;;;7379497;19;20368;-70
2023/12/30 00:21:45;;;;;;;2.67;1.65;;;9.20;1.00;;;;;;7380327;19;20014;-70
2023/12/30 00:24:16;;;;;;;3.50;2.10;;;9.20;1.00;;;;;;7379369;19;20031;-70
2023/12/30 00:26:49;;;;;;;2.78;1.90;;;9.20;1.00;;;;;;7380936;19;20010;-69
2023/12/30 00:29:19;;;;;;;3.30;1.70;;;9.30;1.00;;;;;;7380118;19;20015;-69
2023/12/30 00:31:49;;;;;;;2.65;1.70;;;9.30;1.00;;;;;;7379054;19;20011;-69
2023/12/30 00:34:19;;;;;;;4.38;1.95;;;9.30;1.00;;;;;;7379596;19;20014;-69
2023/12/30 00:36:50;;;;;;;2.25;1.80;;;9.30;1.00;;;;;;7379531;19;20027;-70
2023/12/30 00:39:20;;;;;;;3.22;2.30;;;9.30;1.00;;;;;;7379177;19;20054;-69
2023/12/30 00:41:52;;;;;;;2.35;1.80;;;9.30;1.00;;;;;;7381159;19;20010;-69
2023/12/30 00:44:23;;;;;;;4.35;2.28;;;9.40;1.00;;;;;;7379880;19;20021;-70
2023/12/30 00:46:53;;;;;;;2.78;1.80;;;9.40;1.00;;;;;;7380210;19;20035;-70
2023/12/30 00:49:23;;;;;;;2.20;2.00;;;9.50;1.00;;;;;;7378808;19;20430;-71
2023/12/30 00:51:53;;;;;;;5.18;2.22;;;9.40;1.00;;;;;;7379884;19;20010;-70
2023/12/30 00:54:23;;;;;;;2.97;1.90;;;9.50;1.00;;;;;;7379374;19;20041;-71
2023/12/30 00:56:59;;;;;;;4.28;2.05;;;9.50;1.00;;;;;;7377429;19;20003;-71
2023/12/30 00:59:29;;;;;;;2.85;2.50;;;9.40;1.00;;;;;;7376035;19;20550;-69
2023/12/30 01:01:59;;;;;;;3.08;2.20;;;9.50;1.00;;;;;;7379173;19;20013;-69
2023/12/30 01:04:29;;;;;;;2.38;1.80;;;9.50;1.00;;;;;;7376834;19;20010;-71
2023/12/30 01:07:00;;;;;;;3.00;1.73;;;9.40;1.00;;;;;;7378273;19;20010;-71
2023/12/30 01:09:30;;;;;;;2.55;1.90;;;9.40;1.00;;;;;;7378328;19;20360;-70
2023/12/30 01:12:03;;;;;;;2.45;2.03;;;9.30;1.00;;;;;;7381050;19;20015;-70
2023/12/30 01:14:33;;;;;;;3.58;2.40;;;9.20;1.00;;;;;;7376633;19;20414;-70
2023/12/30 01:17:03;;;;;;;2.85;1.90;;;9.10;1.00;;;;;;7379668;19;20009;-70
2023/12/30 01:19:33;;;;;;;3.08;2.05;;;9.10;1.00;;;;;;7377516;19;20078;-71
2023/12/30 01:22:03;;;;;;;2.75;2.00;;;9.10;1.00;;;;;;7378060;19;20039;-70
2023/12/30 01:24:33;;;;;;;2.83;1.98;;;9.10;1.00;;;;;;7378804;19;20051;-70
2023/12/30 01:27:07;;;;;;;2.83;2.20;;;9.00;1.00;;;;;;7378595;19;20355;-71
2023/12/30 01:29:37;;;;;;;2.95;2.40;;;8.90;1.00;;;;;;7380326;19;20021;-70
2023/12/30 01:32:08;;;;;;;3.33;2.30;;;8.90;1.00;;;;;;7378692;19;20093;-71
2023/12/30 01:34:38;;;;;;;2.90;2.28;;;8.90;1.00;;;;;;7379038;19;20014;-70
2023/12/30 01:37:08;;;;;;;2.78;2.08;;;8.80;1.00;;;;;;7378611;19;20382;-71
2023/12/30 01:39:38;;;;;;;2.67;2.40;;;8.80;1.00;;;;;;7377420;19;20019;-70
2023/12/30 01:42:10;;;;;;;2.92;2.20;;;8.70;1.00;;;;;;7378222;19;20500;-70
2023/12/30 01:44:40;;;;;;;3.25;2.00;;;8.70;1.00;;;;;;7377397;19;20014;-70
2023/12/30 01:47:11;;;;;;;3.80;2.03;;;8.70;1.00;;;;;;7377485;19;20023;-71
2023/12/30 01:49:42;;;;;;;2.95;2.15;;;8.70;1.00;;;;;;7376886;19;20017;-71
2023/12/30 01:52:14;;;;;;;2.85;2.20;;;8.70;1.00;;;;;;7376682;19;20015;-70
2023/12/30 01:54:45;;;;;;;2.90;2.38;;;8.60;1.00;;;;;;7377720;19;20082;-71
2023/12/30 01:57:19;;;;;;;4.32;2.10;;;8.60;1.00;;;;;;7377018;19;20011;-71
2023/12/30 01:59:51;;;;;;;3.45;2.28;;;8.60;1.00;;;;;;7377117;19;20113;-70
2023/12/30 02:02:21;;;;;;;2.65;2.15;;;8.60;1.00;;;;;;7378059;19;20014;-71
2023/12/30 02:04:51;;;;;;;3.25;2.40;;;8.60;1.00;;;;;;7376982;19;20015;-71
2023/12/30 02:07:21;;;;;;;5.32;2.78;;;8.60;1.00;;;;;;7379727;19;20007;-71
2023/12/30 02:09:52;;;;;;;2.83;1.90;;;8.60;1.00;;;;;;7378760;19;20028;-72
2023/12/30 02:12:25;;;;;;;2.90;2.30;;;8.50;1.10;;;;;;7377493;19;20026;-71
2023/12/30 02:14:55;;;;;;;4.13;2.55;;;8.50;3.90;;;;;;7376124;19;20007;-71
2023/12/30 02:17:25;;;;;;;2.28;2.00;;;8.50;5.10;;;;;;7377986;19;20011;-71
2023/12/30 02:19:55;;;;;;;2.65;2.20;;;8.50;2.80;;;;;;7375036;19;20006;-71
2023/12/30 02:22:25;;;;;;;2.58;2.00;;;8.50;1.00;;;;;;7377152;19;20027;-71
2023/12/30 02:24:59;;;;;;;3.33;2.50;;;8.50;2.00;;;;;;7376419;19;20070;-71
2023/12/30 02:27:30;;;;;;;3.25;2.13;;;8.50;4.00;;;;;;7377615;19;20044;-71
2023/12/30 02:30:00;;;;;;;3.72;2.33;;;8.50;6.60;;;;;;7377149;19;20021;-71
2023/12/30 02:32:30;;;;;;;2.78;2.33;;;8.50;13.20;;;;;;7378688;19;20479;-71
2023/12/30 02:35:00;;;;;;;3.83;2.88;;;8.40;21.20;;;;;;7377913;19;20415;-71
2023/12/30 02:37:30;;;;;;;4.85;3.20;;;8.40;28.60;;;;;;7373000;19;20085;-72
2023/12/30 02:40:03;;;;;;;4.97;3.40;;;8.40;45.40;;;;;;7377672;19;20871;-72
2023/12/30 02:42:33;;;;;;;3.75;3.22;;;8.40;63.10;;;;;;7373255;19;20010;-71
2023/12/30 02:45:03;;;;;;;3.92;2.92;;;8.30;89.10;;;;;;7376349;19;20002;-72
2023/12/30 02:47:34;;;;;;;3.85;3.10;;;8.30;96.20;;;;;;7377470;19;20011;-72
2023/12/30 02:50:04;;;;;;;5.47;3.10;;;8.30;99.60;;;;;;7375985;19;20011;-72
2023/12/30 02:52:35;;;;;;;3.15;2.53;;;8.20;99.90;;;;;;7376123;19;20014;-73
2023/12/30 02:55:08;;;;;;;4.45;2.78;;;8.20;99.90;;;;;;7377366;19;20006;-72
2023/12/30 02:57:39;;;;;;;5.72;3.47;;;8.10;99.90;;;;;;7376799;19;20015;-71
2023/12/30 03:00:19;;;;;;;4.47;3.03;;;8.10;99.90;;;;;;7378245;19;20011;-72
2023/12/30 03:02:50;;;;;;;4.72;3.10;;;8.20;99.90;;;;;;7376051;19;20490;-73
2023/12/30 03:05:20;;;;;;;4.45;3.20;;;8.20;99.90;;;;;;7377912;19;20007;-72
2023/12/30 03:07:50;;;;;;;4.78;2.90;;;8.10;99.90;;;;;;7376915;19;20021;-72
2023/12/30 03:10:23;;;;;;;3.88;2.80;;;8.10;99.90;;;;;;7377561;19;20081;-72
2023/12/30 03:12:53;;;;;;;4.80;2.42;;;8.10;99.90;;;;;;7371455;19;20717;-72
2023/12/30 03:15:23;;;;;;;4.68;2.78;;;8.10;99.90;;;;;;7375121;19;20022;-72
2023/12/30 03:17:53;;;;;;;4.22;2.75;;;8.10;99.90;;;;;;7374868;19;20395;-73
2023/12/30 03:20:23;;;;;;;4.93;2.95;;;8.10;99.90;;;;;;7381281;19;20022;-72
2023/12/30 03:22:54;;;;;;;3.45;2.63;;;8.10;99.90;;;;;;7384051;19;20014;-72
2023/12/30 03:25:26;;;;;;;6.38;3.10;;;8.00;99.90;;;;;;7382044;19;20400;-72
2023/12/30 03:27:56;;;;;;;3.58;2.97;;;8.10;99.90;;;;;;7383156;19;20011;-72
2023/12/30 03:30:26;;;;;;;3.55;2.83;;;8.10;99.90;;;;;;7382414;19;20010;-71
2023/12/30 03:32:56;;;;;;;3.83;2.72;;;8.10;99.90;;;;;;7383494;19;20010;-72
2023/12/30 03:35:27;;;;;;;4.05;2.80;;;8.10;99.90;;;;;;7382221;19;20108;-72
2023/12/30 03:37:57;;;;;;;6.25;2.90;;;8.00;99.90;;;;;;7381916;19;20006;-71
2023/12/30 03:40:29;;;;;;;2.58;2.17;;;8.00;99.90;;;;;;7381250;19;20030;-71
2023/12/30 03:43:00;;;;;;;3.17;2.67;;;8.00;99.90;;;;;;7381992;19;20035;-72
2023/12/30 03:45:30;;;;;;;3.03;2.17;;;8.10;99.90;;;;;;7382763;19;20371;-72
2023/12/30 03:48:00;;;;;;;2.88;1.95;;;8.00;99.90;;;;;;7382960;19;20074;-71
2023/12/30 03:50:34;;;;;;;3.67;2.30;;;8.00;99.90;;;;;;7379770;19;20014;-71
2023/12/30 03:53:05;;;;;;;4.30;2.47;;;8.00;99.90;;;;;;7383504;19;20090;-71
2023/12/30 03:55:37;;;;;;;4.22;1.73;;;8.00;99.90;;;;;;7378533;19;20018;-72
2023/12/30 03:58:08;;;;;;;4.03;1.80;;;8.10;99.90;;;;;;7380483;19;20034;-72
2023/12/30 04:00:38;;;;;;;3.17;2.13;;;8.00;99.90;;;;;;7380999;19;20486;-71
2023/12/30 04:03:08;;;;;;;2.47;1.77;;;8.10;99.90;;;;;;7381279;19;20014;-72
2023/12/30 04:05:38;;;;;;;2.55;1.80;;;8.10;99.90;;;;;;7382240;19;20025;-71
2023/12/30 04:08:09;;;;;;;3.60;2.00;;;8.10;99.90;;;;;;7380750;19;20070;-72
2023/12/30 04:10:42;;;;;;;2.03;1.70;;;8.00;99.90;;;;;;7381086;19;20019;-71
2023/12/30 04:13:12;;;;;;;2.03;1.50;;;8.00;99.90;;;;;;7380834;19;20002;-72
2023/12/30 04:15:42;;;;;;;4.30;1.90;;;8.00;99.90;;;;;;7378145;19;20033;-71
2023/12/30 04:18:13;;;;;;;3.47;2.00;;;8.10;99.90;;;;;;7377701;19;20551;-71
2023/12/30 04:20:43;;;;;;;3.92;1.85;;;8.00;99.90;;;;;;7380541;19;20018;-72
2023/12/30 04:23:14;;;;;;;3.05;1.77;;;8.10;99.90;;;;;;7378596;19;20014;-72
2023/12/30 04:25:47;;;;;;;2.95;1.55;;;8.00;99.90;;;;;;7381645;19;20527;-72
2023/12/30 04:28:17;;;;;;;2.28;1.70;;;8.00;99.90;;;;;;7380150;19;20014;-72
2023/12/30 04:30:47;;;;;;;3.42;1.83;;;8.00;99.90;;;;;;7381116;19;20014;-72
2023/12/30 04:33:18;;;;;;;3.03;1.90;;;8.00;99.90;;;;;;7383621;19;20677;-71
2023/12/30 04:35:49;;;;;;;2.40;1.65;;;8.00;99.90;;;;;;7381245;19;20007;-72
2023/12/30 04:38:19;;;;;;;3.03;1.70;;;8.00;99.90;;;;;;7379982;19;20007;-71
2023/12/30 04:40:55;;;;;;;4.85;1.70;;;8.00;99.90;;;;;;7380399;19;20015;-71
2023/12/30 04:43:25;;;;;;;4.22;1.55;;;8.00;99.90;;;;;;7380355;19;20018;-71
2023/12/30 04:45:55;;;;;;;2.55;1.52;;;7.90;99.90;;;;;;7380741;19;20010;-71
2023/12/30 04:48:26;;;;;;;2.47;1.70;;;7.90;99.90;;;;;;7379782;19;20023;-71
2023/12/30 04:50:56;;;;;;;5.30;1.90;;;7.90;99.90;;;;;;7378737;19;20822;-71
2023/12/30 04:53:26;;;;;;;2.80;1.70;;;7.90;99.90;;;;;;7380427;19;20018;-72
2023/12/30 04:55:58;;;;;;;4.43;2.13;;;7.80;99.90;;;;;;7379160;19;20036;-71
2023/12/30 04:58:29;;;;;;;3.22;1.83;;;7.80;99.90;;;;;;7379424;19;20336;-71
2023/12/30 05:00:59;;;;;;;2.28;1.95;;;7.80;99.90;;;;;;7377727;19;20010;-71
2023/12/30 05:03:29;;;;;;;3.13;2.03;;;7.80;99.90;;;;;;7378815;19;20037;-71
2023/12/30 05:05:59;;;;;;;3.83;1.90;;;7.80;99.90;;;;;;7380598;19;20040;-71
2023/12/30 05:08:29;;;;;;;5.10;2.08;;;7.80;99.90;;;;;;7378022;19;20030;-71
2023/12/30 05:11:06;;;;;;;3.03;2.10;;;7.70;99.90;;;;;;7379814;19;20022;-71
2023/12/30 05:13:36;;;;;;;2.88;1.70;;;7.70;99.90;;;;;;7380511;19;20010;-71
2023/12/30 05:16:07;;;;;;;3.47;1.90;;;7.70;99.90;;;;;;7376614;19;20527;-72
2023/12/30 05:18:37;;;;;;;4.05;1.98;;;7.80;99.90;;;;;;7380668;19;20013;-71
2023/12/30 05:21:14;;;;;;;4.18;2.15;;;7.70;99.90;;;;;;7377161;19;20014;-71
2023/12/30 05:23:44;;;;;;;3.72;1.77;;;7.70;99.90;;;;;;7376668;19;20021;-71
2023/12/30 05:26:17;;;;;;;3.38;1.98;;;7.70;99.90;;;;;;7378336;19;20018;-71
2023/12/30 05:28:47;;;;;;;4.03;1.90;;;7.70;99.90;;;;;;7377470;19;20006;-71
2023/12/30 05:31:17;;;;;;;3.60;1.70;;;7.70;99.90;;;;;;7378414;19;20019;-71
2023/12/30 05:33:47;;;;;;;6.20;1.90;;;7.70;99.90;;;;;;7378254;19;20018;-70
2023/12/30 05:36:17;;;;;;;3.13;1.95;;;7.70;99.90;;;;;;7378374;19;20037;-71
2023/12/30 05:38:47;;;;;;;3.35;1.70;;;7.70;99.90;;;;;;7376487;19;20003;-71
2023/12/30 05:41:20;;;;;;;2.70;1.70;;;7.70;99.90;;;;;;7378150;19;20014;-71
2023/12/30 05:43:51;;;;;;;3.40;1.90;;;7.70;99.90;;;;;;7377370;19;20007;-71
2023/12/30 05:46:21;;;;;;;2.72;2.00;;;7.60;99.90;;;;;;7378692;19;20003;-71
2023/12/30 05:48:51;;;;;;;3.00;1.65;;;7.60;99.90;;;;;;7378118;19;20102;-70
2023/12/30 05:51:21;;;;;;;4.90;1.77;;;7.60;99.90;;;;;;7377626;19;20010;-69
2023/12/30 05:53:53;;;;;;;2.47;1.95;;;7.60;99.90;;;;;;7377809;19;20022;-70
2023/12/30 05:56:27;;;;;;;3.13;1.52;;;7.60;99.90;;;;;;7378541;19;20014;-70
2023/12/30 05:58:57;;;;;;;6.40;2.10;;;7.60;99.90;;;;;;7378549;19;20015;-70
2023/12/30 06:01:27;;;;;;;3.00;1.73;;;7.60;99.90;;;;;;7377817;19;20007;-70
2023/12/30 06:03:58;;;;;;;3.35;1.60;;;7.70;99.90;;;;;;7376874;19;20011;-70
2023/12/30 06:06:28;;;;;;;2.63;1.63;;;7.70;99.90;;;;;;7377960;19;20021;-70
2023/12/30 06:09:02;;;;;;;2.05;1.75;;;7.60;99.90;;;;;;7376788;19;20017;-69
2023/12/30 06:11:35;;;;;;;4.05;1.85;;;7.70;99.90;;;;;;7378030;19;20082;-70
2023/12/30 06:14:05;;;;;;;3.05;1.98;;;7.70;99.90;;;;;;7377352;19;20467;-70
2023/12/30 06:16:35;;;;;;;4.03;1.95;;;7.70;99.90;;;;;;7378369;19;20018;-69
2023/12/30 06:19:05;;;;;;;4.57;1.63;;;7.70;99.90;;;;;;7376862;19;20072;-70
2023/12/30 06:21:35;;;;;;;2.95;1.63;;;7.70;99.90;;;;;;7376848;19;20011;-71
2023/12/30 06:24:05;;;;;;;2.92;1.55;;;7.70;99.90;;;;;;7375830;19;20021;-70
2023/12/30 06:26:42;;;;;;;2.10;1.80;;;7.80;99.90;;;;;;7377055;19;20089;-70
2023/12/30 06:29:12;;;;;;;3.13;1.60;;;7.80;99.90;;;;;;7376586;19;20018;-70
2023/12/30 06:31:43;;;;;;;3.30;1.50;;;7.80;98.40;;;;;;7377111;19;20019;-70
2023/12/30 06:34:14;;;;;;;2.45;1.67;;;7.80;97.60;;;;;;7374943;19;20729;-71
2023/12/30 06:36:45;;;;;;;1.92;1.50;;;7.90;92.20;;;;;;7376178;19;20082;-70
2023/12/30 06:39:16;;;;;;;2.70;1.48;;;7.90;85.00;;;;;;7373109;19;20474;-69
2023/12/30 06:41:48;;;;;;;1.58;1.10;;;7.90;74.40;;;;;;7376432;19;20014;-70
2023/12/30 06:44:18;;;;;;;2.58;1.40;;;7.90;68.10;;;;;;7374445;19;20085;-70
2023/12/30 06:46:48;;;;;;;1.83;1.38;;;7.90;68.50;;;;;;7375959;19;20011;-71
2023/12/30 06:49:18;;;;;;;1.15;0.90;;;8.00;70.60;;;;;;7376815;19;20010;-71
2023/12/30 06:51:48;;;;;;;3.75;1.30;;;8.00;63.10;;;;;;7375886;19;20071;-70
2023/12/30 06:54:18;;;;;;;1.70;1.35;;;8.00;61.40;;;;;;7383747;19;20038;-70
2023/12/30 06:56:53;;;;;;;2.67;1.15;;;8.00;68.90;;;;;;7385440;19;20486;-70
2023/12/30 06:59:23;;;;;;;1.25;1.08;;;8.00;64.80;;;;;;7381508;19;20011;-70
2023/12/30 07:01:53;;;;;;;1.45;1.02;;;8.00;60.90;;;;;;7383192;19;20043;-70
2023/12/30 07:04:26;;;;;;;2.67;1.05;;;8.00;58.30;;;;;;7381927;19;20014;-70
2023/12/30 07:06:56;;;;;;;3.78;1.27;;;8.10;55.10;;;;;;7382725;19;20035;-70
2023/12/30 07:09:26;;;;;;;4.32;1.00;;;8.00;52.10;;;;;;7383078;19;20009;-69
2023/12/30 07:11:59;;;;;;;2.45;1.10;;;8.00;53.50;;;;;;7380006;19;20010;-70
2023/12/30 07:14:34;;;;;;;2.47;1.00;;;8.10;47.00;;;;;;7381389;19;20035;-71
2023/12/30 07:17:04;;;;;;;2.17;1.25;;;8.10;41.90;;;;;;7381722;19;20475;-70
2023/12/30 07:19:34;;;;;;;3.30;1.35;;;8.20;41.40;;;;;;7381316;19;20371;-70
2023/12/30 07:22:04;;;;;;;3.03;0.95;;;8.20;43.80;;;;;;7382741;19;20014;-72
2023/12/30 07:24:34;;;;;;;1.85;0.95;;;8.20;42.50;;;;;;7381656;19;20085;-71
2023/12/30 07:27:07;;;;;;;1.40;0.90;;;8.20;43.10;;;;;;7383195;19;20014;-70
2023/12/30 07:29:37;;;;;;;2.00;0.90;;;8.20;41.40;;;;;;7380988;19;20015;-70
2023/12/30 07:32:08;;;;;;;1.27;0.88;;;8.20;42.30;;;;;;7381912;19;20023;-70
2023/12/30 07:34:38;;;;;;;1.55;1.20;;;8.20;39.40;;;;;;7380623;19;20011;-70
2023/12/30 07:37:08;;;;;;;1.40;0.95;;;8.20;45.10;;;;;;7379889;19;20010;-70
2023/12/30 07:39:38;;;;;;;3.78;1.15;;;8.20;54.40;;;;;;7379337;19;20013;-70
2023/12/30 07:42:12;;;;;;;1.80;1.30;;;8.10;64.00;;;;;;7380932;19;20428;-70
2023/12/30 07:44:42;;;;;;;2.00;1.48;;;8.20;73.80;;;;;;7380617;19;20023;-71
2023/12/30 07:47:12;;;;;;;2.92;1.17;;;8.20;84.00;;;;;;7381871;19;20006;-71
2023/12/30 07:49:41;;;;;;;3.50;1.20;;;8.20;90.40;;;;;;7380436;19;20367;-72
2023/12/30 07:52:12;;;;;;;3.47;1.30;;;8.30;92.80;;;;;;7380245;19;20074;-71
2023/12/30 07:54:42;;;;;;;2.95;1.50;;;8.30;96.10;;;;;;7381082;19;20011;-71
2023/12/30 07:57:14;;;;;;;2.13;1.77;;;8.30;95.00;;;;;;7380332;19;20010;-71
2023/12/30 07:59:44;;;;;;;3.63;1.90;;;8.30;99.80;;;;;;7380446;19;20031;-71
2023/12/30 08:02:14;;;;;;;2.65;2.20;;;8.30;99.90;;;;;;7381074;19;20014;-71
2023/12/30 08:04:45;;;;;;;5.18;2.65;;;8.30;99.90;;;;;;7378512;19;20034;-72
2023/12/30 08:07:15;;;;;;;3.92;2.10;;;8.40;99.90;;;;;;7381410;19;20699;-71
2023/12/30 08:09:45;;;;;;;5.32;2.40;;;8.40;93.20;;;;;;7379191;19;20490;-72
2023/12/30 08:12:17;;;;;;;3.38;1.90;;;8.40;89.40;;;;;;7380699;19;20034;-71
2023/12/30 08:14:47;;;;;;;2.15;1.70;;;8.40;75.60;;;;;;7381031;19;20398;-71
2023/12/30 08:17:17;;;;;;;4.18;1.90;;;8.40;73.60;;;;;;7378183;19;20466;-71
2023/12/30 08:19:47;;;;;;;2.35;1.50;;;8.40;66.20;;;;;;7379173;19;20014;-71
2023/12/30 08:22:18;;;;;;;3.65;1.73;;;8.50;69.30;;;;;;7382093;19;20017;-71
2023/12/30 08:24:49;;;;;;;4.95;1.85;;;8.50;65.80;;;;;;7381443;19;20078;-70
2023/12/30 08:27:22;;;;;;;3.65;1.48;;;8.50;61.00;;;;;;7381632;19;20003;-70
2023/12/30 08:29:52;;;;;;;3.72;1.75;;;8.50;61.70;;;;;;7381340;19;20070;-71
2023/12/30 08:32:22;;;;;;;2.45;1.63;;;8.50;61.40;;;;;;7377939;19;20022;-71
2023/12/30 08:34:54;;;;;;;2.80;2.50;;;8.50;70.70;;;;;;7376059;19;20007;-71
2023/12/30 08:37:24;;;;;;;4.10;2.20;;;8.50;84.20;;;;;;7379346;19;20022;-71
2023/12/30 08:39:54;;;;;;;2.88;2.03;;;8.50;93.50;;;;;;7379840;19;20090;-72
2023/12/30 08:42:34;;;;;;;3.13;2.10;;;8.50;96.30;;;;;;7381744;19;20011;-72
2023/12/30 08:45:04;;;;;;;2.53;1.98;;;8.50;99.90;;;;;;7379442;19;20105;-72
2023/12/30 08:47:35;;;;;;;4.78;2.15;;;8.40;99.90;;;;;;7380693;19;20006;-71
2023/12/30 08:50:05;;;;;;;2.88;1.88;;;8.40;99.90;;;;;;7380818;19;20409;-71
2023/12/30 08:52:35;;;;;;;4.93;2.20;;;8.40;99.90;;;;;;7380018;19;20018;-71
2023/12/30 08:55:10;;;;;;;4.40;2.15;;;8.40;99.90;;;;;;7378717;19;20011;-71
2023/12/30 08:57:43;;;;;;;3.38;1.90;;;8.40;99.90;;;;;;7379272;19;20027;-72
2023/12/30 09:00:15;;;;;;;2.35;1.90;;;8.50;99.90;;;;;;7378508;19;20089;-72
2023/12/30 09:02:48;;;;;;;3.33;2.22;;;8.50;99.90;;;;;;7378719;19;20027;-71
2023/12/30 09:05:20;;;;;;;2.33;1.90;;;8.50;99.90;;;;;;7377619;19;20765;-71
2023/12/30 09:07:51;;;;;;;3.33;1.90;;;8.60;99.90;;;;;;7379950;19;20606;-70
2023/12/30 09:10:22;;;;;;;3.97;2.47;;;8.60;99.90;;;;;;7377084;19;20010;-71
2023/12/30 09:12:54;;;;;;;3.97;1.60;;;8.70;99.90;;;;;;7380617;19;20006;-71
2023/12/30 09:15:25;;;;;;;2.17;1.40;;;8.70;92.60;;;;;;7376995;19;20035;-71
2023/12/30 09:17:57;;;;;;;2.10;1.10;;;8.80;80.20;;;;;;7376324;19;20018;-72
2023/12/30 09:20:27;;;;;;;1.70;1.10;;;8.90;35.00;;;;;;7379777;19;20010;-72
2023/12/30 09:22:57;;;;;;;3.20;1.10;;;9.00;23.80;;;;;;7377508;19;20086;-72
2023/12/30 09:25:28;;;;;;;3.58;1.38;;;9.00;20.30;;;;;;7377469;19;20058;-72
2023/12/30 09:28:01;;;;;;;2.58;1.55;;;9.00;20.30;;;;;;7377456;19;20010;-72
2023/12/30 09:30:31;;;;;;;2.10;1.40;;;9.00;19.90;;;;;;7377646;19;20477;-71
2023/12/30 09:33:01;;;;;;;1.95;1.13;;;9.00;22.80;;;;;;7377560;19;20078;-71
2023/12/30 09:35:32;;;;;;;2.95;1.63;;;9.00;14.40;;;;;;7378158;19;20011;-71
2023/12/30 09:38:03;;;;;;;4.22;1.65;;;9.10;15.50;;;;;;7377467;19;20031;-71
2023/12/30 09:40:33;;;;;;;2.25;1.33;;;9.10;19.00;;;;;;7377341;19;20003;-71
2023/12/30 09:43:07;;;;;;;2.85;1.30;;;9.20;22.00;;;;;;7377891;19;20011;-71
2023/12/30 09:45:41;;;;;;;1.70;1.20;;;9.10;19.00;;;;;;7378854;19;20479;-71
2023/12/30 09:48:12;;;;;;;2.75;1.35;;;9.20;19.10;;;;;;7378392;19;20035;-71
2023/12/30 09:50:44;;;;;;;1.92;1.50;;;9.30;17.60;;;;;;7377585;19;20014;-71
2023/12/30 09:53:14;;;;;;;1.85;1.23;;;9.40;16.10;;;;;;7377142;19;20006;-71
2023/12/30 09:55:44;;;;;;;2.55;1.23;;;9.40;5.00;;;;;;7377182;19;20014;-72
2023/12/30 09:58:17;;;;;;;2.92;1.50;;;9.60;3.40;;;;;;7377995;19;20659;-72
2023/12/30 10:00:47;;;;;;;3.00;1.35;;;9.60;1.00;;;;;;7377228;19;20017;-71
2023/12/30 10:03:18;;;;;;;1.95;1.63;;;9.70;1.00;;;;;;7379200;19;20025;-71
2023/12/30 10:05:49;;;;;;;2.35;1.60;;;9.80;1.00;;;;;;7376576;19;20022;-71
2023/12/30 10:08:20;;;;;;;1.45;1.30;;;9.90;1.00;;;;;;7377708;19;20011;-71
2023/12/30 10:10:53;;;;;;;2.47;1.33;;;9.90;1.00;;;;;;7376481;19;20035;-72
2023/12/30 10:13:28;;;;;;;1.80;1.30;;;10.00;1.00;;;;;;7379835;19;20025;-72
2023/12/30 10:16:05;;;;;;;6.63;1.40;;;10.10;1.00;;;;;;7376306;19;20011;-72
2023/12/30 10:18:35;;;;;;;1.92;1.50;;;10.10;1.00;;;;;;7376092;19;20391;-74
2023/12/30 10:21:06;;;;;;;1.10;0.93;;;10.10;1.00;;;;;;7375889;19;20386;-70
2023/12/30 10:23:37;;;;;;;2.63;1.25;;;10.20;1.00;;;;;;7378407;19;20015;-71
2023/12/30 10:26:07;;;;;;;2.60;0.80;;;10.20;1.00;;;;;;7377977;19;20500;-72
2023/12/30 10:28:40;;;;;;;2.42;0.93;;;10.20;1.00;;;;;;7376721;19;20010;-71
2023/12/30 10:31:11;;;;;;;2.30;0.77;;;10.20;1.00;;;;;;7376458;19;20017;-70
2023/12/30 10:33:43;;;;;;;2.15;0.80;;;10.20;1.00;;;;;;7377775;19;20014;-70
2023/12/30 10:36:15;;;;;;;3.13;0.80;;;10.20;1.00;;;;;;7375096;19;20148;-71
2023/12/30 10:38:47;;;;;;;1.95;0.80;;;10.30;1.00;;;;;;7374447;19;20574;-69
2023/12/30 10:41:17;;;;;;;2.20;0.80;;;10.20;1.00;;;;;;7374488;19;20026;-70
2023/12/30 10:43:49;;;;;;;2.22;0.88;;;10.20;1.00;;;;;;7375097;19;20021;-70
2023/12/30 10:46:21;;;;;;;1.70;0.68;;;10.20;1.00;;;;;;7375141;19;20011;-70
2023/12/30 10:48:55;;;;;;;1.08;0.60;;;10.20;1.00;;;;;;7374301;19;20077;-71
2023/12/30 10:51:28;;;;;;;2.90;0.95;;;10.20;1.00;;;;;;7377257;19;20014;-70
2023/12/30 10:54:06;;;;;;;1.90;1.00;;;10.30;1.00;;;;;;7372564;19;20031;-70
2023/12/30 10:56:44;;;;;;;1.35;0.63;;;10.30;1.00;;;;;;7375661;19;20035;-70
2023/12/30 10:59:21;;;;;;;1.33;0.80;;;10.40;1.00;;;;;;7369016;19;20478;-70
2023/12/30 11:01:51;;;;;;;3.25;0.88;;;10.30;1.00;;;;;;7375947;19;20475;-70
2023/12/30 11:04:25;;;;;;;2.05;0.70;;;10.40;1.00;;;;;;7375126;19;20036;-70
2023/12/30 11:06:58;;;;;;;2.45;0.90;;;10.40;1.00;;;;;;7376929;19;20015;-70
2023/12/30 11:09:29;;;;;;;1.75;0.70;;;10.50;1.00;;;;;;7374733;19;20015;-70
2023/12/30 11:12:05;;;;;;;2.60;0.57;;;10.50;1.00;;;;;;7375022;19;20023;-70
2023/12/30 11:14:40;;;;;;;2.30;0.60;;;10.50;1.00;;;;;;7374984;19;20007;-70
2023/12/30 11:17:10;;;;;;;;;;;10.60;1.00;;;;;;7377021;19;20579;-70
2023/12/30 11:19:40;;;;;;;3.33;0.70;;;10.60;1.00;;;;;;7369915;19;19919;-71
2023/12/30 11:22:10;;;;;;;3.22;0.70;;;10.70;1.00;;;;;;7376316;19;20043;-70
2023/12/30 11:24:43;;;;;;;1.85;1.02;;;10.70;1.00;;;;;;7373813;19;19998;-70
2023/12/30 11:27:14;;;;;;;3.22;0.93;;;10.70;1.00;;;;;;7372586;19;20007;-70
2023/12/30 11:29:47;;;;;;;1.55;0.70;;;10.70;1.00;;;;;;7370753;19;20035;-70
2023/12/30 11:32:19;;;;;;;2.08;0.70;;;10.80;1.00;;;;;;7370010;19;20021;-70
2023/12/30 11:34:50;;;;;;;2.58;0.52;;;10.80;1.00;;;;;;7373787;19;20015;-72
2023/12/30 11:37:21;;;;;;;7.43;1.15;;;10.80;1.00;;;;;;7371086;19;20070;-71
2023/12/30 11:39:54;;;;;;;1.98;0.90;;;10.90;1.00;;;;;;7372964;19;20018;-70
2023/12/30 11:42:24;;;;;;;1.40;0.85;;;10.90;1.00;;;;;;7382089;19;20093;-71
2023/12/30 11:45:13;;;;;;;3.10;1.23;;;10.90;1.00;;;;;;7385524;19;20011;-70
2023/12/30 11:47:43;;;;;;;1.33;0.75;;;10.90;1.00;;;;;;7381818;19;20010;-70
2023/12/30 11:50:15;;;;;;;7.80;1.08;;;11.10;1.00;;;;;;7380957;19;20481;-70
2023/12/30 11:52:48;;;;;;;2.38;1.20;;;11.10;1.00;;;;;;7378995;19;20086;-69
2023/12/30 11:55:18;;;;;;;2.58;0.98;;;11.00;1.00;;;;;;7377079;19;20397;-71
2023/12/30 11:57:48;;;;;;;2.60;0.68;;;11.00;1.00;;;;;;7379667;19;20015;-70
2023/12/30 12:00:24;;;;;;;1.42;0.52;;;11.10;1.00;;;;;;7378698;19;20092;-71
2023/12/30 12:02:54;;;;;;;2.63;0.80;;;11.10;1.00;;;;;;7381076;19;20489;-71
2023/12/30 12:05:25;;;;;;;1.60;0.70;;;11.10;1.00;;;;;;7381190;19;20348;-71
2023/12/30 12:07:55;;;;;;;3.10;0.70;;;11.20;1.00;;;;;;7378244;19;20044;-70
2023/12/30 12:10:25;;;;;;;1.58;0.75;;;11.30;1.00;;;;;;7381603;19;20007;-70
2023/12/30 12:12:56;;;;;;;1.45;0.57;;;11.50;1.00;;;;;;7378444;19;20015;-70
2023/12/30 12:15:29;;;;;;;1.73;0.80;;;11.40;1.00;;;;;;7380015;19;20010;-69
2023/12/30 12:17:59;;;;;;;1.65;0.70;;;11.40;1.00;;;;;;7379808;19;20082;-71
2023/12/30 12:20:31;;;;;;;1.67;0.80;;;11.30;1.00;;;;;;7379292;19;20015;-69
2023/12/30 12:23:01;;;;;;;2.25;1.15;;;11.40;1.00;;;;;;7378228;19;20018;-70
2023/12/30 12:25:31;;;;;;;2.97;1.50;;;11.60;1.00;;;;;;7379598;19;20029;-71
2023/12/30 12:28:02;;;;;;;1.52;0.52;;;11.50;1.00;;;;;;7378573;19;20098;-70
2023/12/30 12:30:34;;;;;;;1.25;0.90;;;11.30;1.00;;;;;;7379295;19;20010;-71
2023/12/30 12:33:04;;;;;;;3.67;0.80;;;11.10;1.00;;;;;;7380217;19;20010;-71
2023/12/30 12:35:35;;;;;;;1.35;0.90;;;11.10;1.00;;;;;;7378242;19;20014;-70
2023/12/30 12:38:06;;;;;;;1.35;0.70;;;11.10;1.00;;;;;;7379221;19;20014;-71
2023/12/30 12:40:36;;;;;;;2.83;0.80;;;11.10;1.00;;;;;;7380498;19;20013;-70
2023/12/30 12:43:06;;;;;;;1.05;0.68;;;11.00;1.00;;;;;;7380687;19;20362;-71
2023/12/30 12:45:39;;;;;;;1.35;0.90;;;11.00;1.00;;;;;;7379916;19;20598;-71
2023/12/30 12:48:10;;;;;;;2.28;0.70;;;10.90;1.00;;;;;;7377610;19;20513;-71
2023/12/30 12:50:41;;;;;;;3.00;0.88;;;10.90;1.00;;;;;;7380143;19;20029;-70
2023/12/30 12:53:11;;;;;;;3.45;1.02;;;10.80;1.00;;;;;;7378611;19;20022;-69
2023/12/30 12:55:41;;;;;;;2.78;0.90;;;11.10;1.00;;;;;;7378146;19;20014;-71
2023/12/30 12:58:11;;;;;;;5.00;1.17;;;11.10;1.00;;;;;;7377828;19;20444;-70
2023/12/30 13:00:43;;;;;;;2.05;1.10;;;11.20;1.00;;;;;;7377077;19;20075;-71
2023/12/30 13:03:14;;;;;;;2.40;0.90;;;11.20;1.00;;;;;;7378266;19;20010;-71
2023/12/30 13:05:44;;;;;;;2.38;1.35;;;11.20;1.00;;;;;;7378434;19;20035;-70
2023/12/30 13:08:14;;;;;;;2.45;0.98;;;11.10;1.00;;;;;;7377672;19;20467;-70
2023/12/30 13:10:48;;;;;;;2.55;1.20;;;11.10;1.00;;;;;;7378863;19;20022;-70
2023/12/30 13:13:19;;;;;;;3.80;1.70;;;11.10;1.00;;;;;;7377693;19;20018;-71
2023/12/30 13:15:51;;;;;;;2.83;1.40;;;11.10;1.00;;;;;;7376934;19;20823;-71
2023/12/30 13:18:22;;;;;;;4.13;1.83;;;11.00;1.00;;;;;;7379667;19;20518;-72
2023/12/30 13:20:52;;;;;;;4.22;1.75;;;11.00;1.00;;;;;;7376752;19;20011;-68